createdAt,value
2023-02-05T00:01:58.114Z,88130.47
2023-02-05T00:04:25.350Z,88132.13
2023-02-05T00:06:52.494Z,88130.78
2023-02-05T00:09:19.763Z,88128.81
2023-02-05T00:11:46.938Z,88125.28
2023-02-05T00:14:14.166Z,88117.41
2023-02-05T00:16:41.490Z,88122.25
2023-02-05T00:19:09.040Z,88102.25
2023-02-05T00:21:36.608Z,88112.47
2023-02-05T00:24:04.213Z,88115.22
2023-02-05T00:26:31.847Z,88113.84
2023-02-05T00:28:59.210Z,88108.91
2023-02-05T00:31:26.561Z,88107.28
2023-02-05T00:33:54.382Z,88111.13
2023-02-05T00:36:23.887Z,88116.47
2023-02-05T00:38:54.725Z,88111.16
2023-02-05T00:41:22.086Z,88117.13
2023-02-05T00:43:49.526Z,88116.41
2023-02-05T00:46:17.798Z,88119.81
2023-02-05T00:48:45.179Z,88117.31
2023-02-05T00:51:12.402Z,88118.84
2023-02-05T00:53:39.784Z,88124.34
2023-02-05T00:56:07.280Z,88125.75
2023-02-05T00:58:34.988Z,88118.56
2023-02-05T01:01:02.247Z,88126.38
2023-02-05T01:03:30.962Z,88108.88
2023-02-05T01:05:58.305Z,88109.50
2023-02-05T01:08:25.585Z,88104.63
2023-02-05T01:10:52.746Z,88108.47
2023-02-05T01:13:20.192Z,88109.34
2023-02-05T01:15:47.504Z,88111.47
2023-02-05T01:18:15.156Z,88112.25
2023-02-05T01:20:43.762Z,88119.88
2023-02-05T01:23:12.143Z,88113.44
2023-02-05T01:25:40.050Z,88116.03
2023-02-05T01:28:07.476Z,88107.78
2023-02-05T01:30:36.058Z,88110.97
2023-02-05T01:33:04.554Z,88111.28
2023-02-05T01:35:32.760Z,88099.81
2023-02-05T01:38:00.151Z,88104.84
2023-02-05T01:40:27.395Z,88103.19
2023-02-05T01:42:54.736Z,88103.66
2023-02-05T01:45:24.904Z,88108.50
2023-02-05T01:48:01.663Z,88101.00
2023-02-05T01:50:39.712Z,88098.53
2023-02-05T01:53:14.022Z,88092.88
2023-02-05T01:55:54.080Z,88092.41
2023-02-05T01:58:22.913Z,88092.06
2023-02-05T02:00:50.320Z,88086.22
2023-02-05T02:03:18.106Z,88090.81
2023-02-05T02:05:45.365Z,88082.44
2023-02-05T02:08:13.677Z,88088.69
2023-02-05T02:10:46.118Z,88087.25
2023-02-05T02:13:14.776Z,88086.72
2023-02-05T02:15:42.406Z,88088.28
2023-02-05T02:18:11.001Z,88090.03
2023-02-05T02:20:41.896Z,88091.50
2023-02-05T02:23:38.378Z,88086.50
2023-02-05T02:26:27.033Z,88078.50
2023-02-05T02:29:03.829Z,88085.94
2023-02-05T02:31:37.070Z,88079.72
2023-02-05T02:34:18.374Z,88089.81
2023-02-05T02:37:02.049Z,88081.25
2023-02-05T02:39:44.590Z,88093.25
2023-02-05T02:42:27.065Z,88086.41
2023-02-05T02:45:00.626Z,88089.78
2023-02-05T02:47:46.787Z,88081.97
2023-02-05T02:50:26.459Z,88077.28
2023-02-05T02:52:56.007Z,88069.41
2023-02-05T02:55:25.147Z,88070.59
2023-02-05T02:57:56.452Z,88075.47
2023-02-05T03:00:27.896Z,88072.31
2023-02-05T03:03:02.718Z,88085.59
2023-02-05T03:05:31.859Z,88076.19
2023-02-05T03:08:10.735Z,88081.25
2023-02-05T03:11:12.056Z,88070.22
2023-02-05T03:13:39.754Z,88082.78
2023-02-05T03:16:08.163Z,88094.00
2023-02-05T03:18:36.678Z,88084.19
2023-02-05T03:21:13.644Z,88092.28
2023-02-05T03:23:41.280Z,88091.09
2023-02-05T03:26:28.571Z,88092.16
2023-02-05T03:29:00.584Z,88097.41
2023-02-05T03:31:58.119Z,88100.88
2023-02-05T03:34:45.854Z,88101.00
2023-02-05T03:37:46.068Z,88089.06
2023-02-05T03:40:52.953Z,88094.06
2023-02-05T03:43:31.685Z,88088.59
2023-02-05T03:46:31.315Z,88081.81
2023-02-05T03:49:35.527Z,88091.13
2023-02-05T03:52:09.910Z,88095.34
2023-02-05T03:55:02.745Z,88095.34
2023-02-05T03:57:59.250Z,88101.88
2023-02-05T04:00:27.693Z,88104.53
2023-02-05T04:02:55.366Z,88104.72
2023-02-05T04:05:22.644Z,88098.97
2023-02-05T04:07:52.065Z,88115.28
2023-02-05T04:10:20.136Z,88092.00
2023-02-05T04:12:47.665Z,88096.31
2023-02-05T04:15:15.028Z,88097.16
2023-02-05T04:17:42.281Z,88090.44
2023-02-05T04:20:10.334Z,88093.03
2023-02-05T04:22:37.823Z,88096.22
2023-02-05T04:25:05.480Z,88094.19
2023-02-05T04:27:33.519Z,88083.44
2023-02-05T04:30:00.723Z,88081.53
2023-02-05T04:32:28.353Z,88085.81
2023-02-05T04:34:55.746Z,88092.81
2023-02-05T04:37:22.998Z,88096.25
2023-02-05T04:39:50.269Z,88084.81
2023-02-05T04:42:17.647Z,88088.56
2023-02-05T04:44:45.052Z,88094.13
2023-02-05T04:47:12.236Z,88083.00
2023-02-05T04:49:39.563Z,88090.66
2023-02-05T04:52:07.951Z,88084.63
2023-02-05T04:54:37.108Z,88084.69
2023-02-05T04:57:04.710Z,88091.41
2023-02-05T04:59:32.002Z,88094.06
2023-02-05T05:02:00.278Z,88087.44
2023-02-05T05:04:27.591Z,88092.81
2023-02-05T05:06:54.890Z,88085.91
2023-02-05T05:09:22.185Z,88091.72
2023-02-05T05:11:50.025Z,88093.41
2023-02-05T05:14:17.332Z,88091.13
2023-02-05T05:16:44.695Z,88093.09
2023-02-05T05:19:12.234Z,88093.56
2023-02-05T05:21:39.494Z,88100.84
2023-02-05T05:24:07.094Z,88093.75
2023-02-05T05:26:34.571Z,88103.34
2023-02-05T05:29:02.111Z,88090.16
2023-02-05T05:31:29.393Z,88099.94
2023-02-05T05:33:56.607Z,88101.75
2023-02-05T05:36:23.977Z,88103.91
2023-02-05T05:38:51.235Z,88099.59
2023-02-05T05:41:24.046Z,88092.91
2023-02-05T05:43:54.559Z,88085.84
2023-02-05T05:46:26.515Z,88091.47
2023-02-05T05:49:01.725Z,88086.59
2023-02-05T05:51:30.657Z,88094.06
2023-02-05T05:53:57.951Z,88108.88
2023-02-05T05:56:25.486Z,88097.34
2023-02-05T05:58:53.069Z,88098.97
2023-02-05T06:01:21.284Z,88100.06
2023-02-05T06:03:48.827Z,88100.06
2023-02-05T06:06:16.097Z,88102.03
2023-02-05T06:08:43.424Z,88111.88
2023-02-05T06:11:11.197Z,88097.84
2023-02-05T06:13:38.842Z,88105.09
2023-02-05T06:16:06.558Z,88101.75
2023-02-05T06:18:34.057Z,88100.22
2023-02-05T06:21:01.296Z,88100.34
2023-02-05T06:23:28.628Z,88101.09
2023-02-05T06:25:55.854Z,88103.50
2023-02-05T06:28:23.143Z,88105.25
2023-02-05T06:30:50.507Z,88116.53
2023-02-05T06:33:17.810Z,88105.72
2023-02-05T06:35:44.963Z,88103.19
2023-02-05T06:38:12.100Z,88111.97
2023-02-05T06:40:39.598Z,88110.66
2023-02-05T06:43:07.010Z,88110.94
2023-02-05T06:45:34.369Z,88109.88
2023-02-05T06:48:01.846Z,88119.66
2023-02-05T06:50:29.248Z,88122.66
2023-02-05T06:52:56.574Z,88117.47
2023-02-05T06:55:23.829Z,88126.53
2023-02-05T06:57:50.941Z,88135.34
2023-02-05T07:00:18.438Z,88126.06
2023-02-05T07:02:45.785Z,88130.22
2023-02-05T07:05:12.985Z,88122.78
2023-02-05T07:07:40.250Z,88119.72
2023-02-05T07:10:08.054Z,88119.13
2023-02-05T07:12:35.300Z,88135.69
2023-02-05T07:15:02.525Z,88135.88
2023-02-05T07:17:29.953Z,88148.84
2023-02-05T07:19:57.188Z,88146.00
2023-02-05T07:22:24.929Z,88148.84
2023-02-05T07:24:52.227Z,88145.78
2023-02-05T07:27:19.793Z,88136.75
2023-02-05T07:29:47.427Z,88144.50
2023-02-05T07:32:14.632Z,88152.69
2023-02-05T07:34:42.113Z,88152.56
2023-02-05T07:37:12.554Z,88162.34
2023-02-05T07:39:39.968Z,88163.34
2023-02-05T07:42:07.136Z,88165.63
2023-02-05T07:44:34.333Z,88162.06
2023-02-05T07:47:02.258Z,88164.81
2023-02-05T07:49:29.459Z,88157.69
2023-02-05T07:51:56.666Z,88162.31
2023-02-05T07:54:23.887Z,88160.44
2023-02-05T07:56:51.500Z,88163.03
2023-02-05T07:59:18.645Z,88158.50
2023-02-05T08:01:46.943Z,88162.28
2023-02-05T08:04:14.326Z,88164.47
2023-02-05T08:06:42.596Z,88162.56
2023-02-05T08:09:11.301Z,88168.16
2023-02-05T08:11:39.040Z,88166.47
2023-02-05T08:14:06.333Z,88165.63
2023-02-05T08:16:33.564Z,88162.69
2023-02-05T08:19:00.889Z,88171.16
2023-02-05T08:21:28.134Z,88170.50
2023-02-05T08:23:57.342Z,88159.22
2023-02-05T08:26:24.781Z,88167.59
2023-02-05T08:28:52.177Z,88164.84
2023-02-05T08:31:19.944Z,88173.97
2023-02-05T08:33:47.248Z,88178.72
2023-02-05T08:36:14.545Z,88183.22
2023-02-05T08:38:41.982Z,88173.63
2023-02-05T08:41:11.365Z,88180.19
2023-02-05T08:43:44.645Z,88180.38
2023-02-05T08:46:16.796Z,88184.03
2023-02-05T08:48:44.100Z,88180.28
2023-02-05T08:51:13.918Z,88178.38
2023-02-05T08:53:42.036Z,88179.34
2023-02-05T08:56:09.810Z,88181.06
2023-02-05T08:58:38.840Z,88180.50
2023-02-05T09:01:17.354Z,88172.66
2023-02-05T09:03:45.582Z,88171.31
2023-02-05T09:06:15.891Z,88171.69
2023-02-05T09:08:43.549Z,88175.88
2023-02-05T09:11:11.296Z,88166.19
2023-02-05T09:13:38.608Z,88174.81
2023-02-05T09:16:06.051Z,88174.53
2023-02-05T09:18:33.253Z,88180.19
2023-02-05T09:21:00.548Z,88183.75
2023-02-05T09:23:27.882Z,88175.38
2023-02-05T09:25:55.289Z,88169.53
2023-02-05T09:28:23.775Z,88182.25
2023-02-05T09:30:51.489Z,88177.34
2023-02-05T09:33:18.935Z,88176.16
2023-02-05T09:35:46.261Z,88171.91
2023-02-05T09:38:15.461Z,88182.38
2023-02-05T09:41:08.498Z,88178.44
2023-02-05T09:44:18.420Z,88177.38
2023-02-05T09:47:24.177Z,88171.28
2023-02-05T09:50:06.216Z,88177.25
2023-02-05T09:52:45.557Z,88174.03
2023-02-05T09:55:15.317Z,88171.94
2023-02-05T09:57:43.330Z,88180.56
2023-02-05T10:00:45.146Z,88178.22
2023-02-05T10:03:34.602Z,88177.94
2023-02-05T10:06:31.434Z,88176.16
2023-02-05T10:09:18.855Z,88177.75
2023-02-05T10:12:05.428Z,88177.78
2023-02-05T10:14:58.641Z,88174.16
2023-02-05T10:18:23.002Z,88178.47
2023-02-05T10:21:12.053Z,88170.66
2023-02-05T10:23:56.102Z,88177.09
2023-02-05T10:26:44.058Z,88176.31
2023-02-05T10:29:22.248Z,88171.91
2023-02-05T10:32:13.354Z,88176.31
2023-02-05T10:35:09.859Z,88175.59
2023-02-05T10:37:52.920Z,88169.66
2023-02-05T10:40:37.750Z,88160.81
2023-02-05T10:43:30.349Z,88158.69
2023-02-05T10:45:59.912Z,88162.22
2023-02-05T10:48:47.035Z,88153.38
2023-02-05T11:03:23.583Z,88135.34
2023-02-05T11:05:51.945Z,88133.97
2023-02-05T11:08:41.559Z,88133.06
2023-02-05T11:11:29.648Z,88130.78
2023-02-05T11:14:04.595Z,88125.56
2023-02-05T11:16:45.722Z,88123.13
2023-02-05T11:19:25.977Z,88120.22
2023-02-05T11:21:59.552Z,88114.84
2023-02-05T11:24:37.977Z,88115.63
2023-02-05T11:27:27.593Z,88109.19
2023-02-05T11:38:48.290Z,88082.69
2023-02-05T11:41:33.289Z,88077.94
2023-02-05T11:44:08.060Z,88079.13
2023-02-05T11:47:04.866Z,88071.59
2023-02-05T11:49:52.342Z,88059.47
2023-02-05T11:53:24.155Z,88056.16
2023-02-05T11:57:25.713Z,88057.66
2023-02-05T12:00:22.671Z,88048.78
2023-02-05T12:02:50.843Z,88035.22
2023-02-05T12:05:27.073Z,88031.94
2023-02-05T12:08:30.751Z,88024.22
2023-02-05T12:11:19.630Z,88006.50
2023-02-05T12:17:47.237Z,88006.88
2023-02-05T12:20:41.189Z,87996.88
2023-02-05T12:23:30.238Z,87998.72
2023-02-05T12:26:16.257Z,87996.00
2023-02-05T12:29:12.828Z,87987.84
2023-02-05T12:39:54.634Z,87983.03
2023-02-05T12:42:40.785Z,87983.09
2023-02-05T12:45:29.585Z,87983.81
2023-02-05T12:48:16.077Z,87968.28
2023-02-05T12:51:29.985Z,87969.03
2023-02-05T12:54:52.214Z,87970.25
2023-02-05T12:57:32.218Z,87970.66
2023-02-05T13:04:22.914Z,87964.63
2023-02-05T13:07:08.441Z,87971.09
2023-02-05T13:13:54.642Z,87969.00
2023-02-05T13:16:31.158Z,87970.56
2023-02-05T13:19:28.148Z,87976.69
2023-02-05T13:22:00.476Z,87976.19
2023-02-05T13:24:52.740Z,87973.53
2023-02-05T13:31:45.219Z,87969.22
2023-02-05T13:34:16.672Z,87972.91
2023-02-05T13:37:16.027Z,87977.72
2023-02-05T13:40:39.547Z,87970.81
2023-02-05T13:44:06.938Z,87973.88
2023-02-05T13:47:11.903Z,87981.50
2023-02-05T13:54:57.848Z,87981.06
2023-02-05T13:58:11.674Z,87972.97
2023-02-05T14:05:52.842Z,87976.19
2023-02-05T14:20:25.133Z,87977.38
2023-02-05T14:22:57.904Z,87984.03
2023-02-05T14:30:51.902Z,88008.31
2023-02-05T14:34:34.834Z,88000.22
2023-02-05T14:41:24.315Z,88005.44
2023-02-05T14:51:24.237Z,88008.59
2023-02-05T14:57:47.987Z,88027.03
2023-02-05T15:04:53.497Z,88013.53
2023-02-05T15:15:31.646Z,88005.50
2023-02-05T15:21:52.737Z,88013.50
2023-02-05T15:36:54.687Z,88024.22
2023-02-05T15:40:16.497Z,88033.75
2023-02-05T15:46:16.256Z,88027.75
2023-02-05T15:48:44.785Z,88020.66
2023-02-05T16:03:15.638Z,88039.75
2023-02-05T16:06:38.914Z,88041.56
2023-02-05T16:09:37.407Z,88049.91
2023-02-05T16:16:17.828Z,88051.91
2023-02-05T16:19:01.455Z,88056.66
2023-02-05T16:21:43.559Z,88071.19
2023-02-05T16:24:32.506Z,88069.22
2023-02-05T16:27:21.106Z,88071.38
2023-02-05T16:29:58.913Z,88075.63
2023-02-05T16:32:54.002Z,88073.81
2023-02-05T16:35:32.553Z,88070.31
2023-02-05T16:38:01.979Z,88071.84
2023-02-05T16:40:38.834Z,88066.78
2023-02-05T16:43:27.486Z,88069.09
2023-02-05T16:46:07.907Z,88071.22
2023-02-05T16:48:49.695Z,88067.88
2023-02-05T16:51:54.073Z,88078.88
2023-02-05T16:54:34.198Z,88090.19
2023-02-05T16:57:23.597Z,88097.84
2023-02-05T17:00:06.411Z,88097.97
2023-02-05T17:02:39.475Z,88097.66
2023-02-05T17:05:25.852Z,88092.44
2023-02-05T17:08:06.984Z,88099.31
2023-02-05T17:10:53.701Z,88106.47
2023-02-05T17:13:37.750Z,88114.25
2023-02-05T17:16:24.747Z,88100.94
2023-02-05T17:19:06.754Z,88114.81
2023-02-05T17:21:37.121Z,88121.69
2023-02-05T17:24:04.900Z,88124.72
2023-02-05T17:26:40.037Z,88132.66
2023-02-05T17:29:15.837Z,88132.47
2023-02-05T17:31:43.327Z,88131.38
2023-02-05T17:34:11.865Z,88133.31
2023-02-05T17:36:39.258Z,88131.94
2023-02-05T17:39:06.933Z,88133.88
2023-02-05T17:41:37.751Z,88141.31
2023-02-05T17:44:06.492Z,88145.00
2023-02-05T17:47:03.021Z,88143.09
2023-02-05T17:49:31.166Z,88150.25
2023-02-05T17:51:58.762Z,88151.78
2023-02-05T17:54:26.677Z,88156.69
2023-02-05T17:56:58.596Z,88156.50
2023-02-05T17:59:26.483Z,88159.34
2023-02-05T18:01:56.759Z,88161.56
2023-02-05T18:04:24.117Z,88160.03
2023-02-05T18:06:52.198Z,88154.47
2023-02-05T18:09:19.481Z,88155.38
2023-02-05T18:11:47.737Z,88153.75
2023-02-05T18:14:15.197Z,88156.75
2023-02-05T18:16:42.930Z,88149.38
2023-02-05T18:19:10.616Z,88147.97
2023-02-05T18:21:39.210Z,88144.91
2023-02-05T18:24:10.708Z,88149.44
2023-02-05T18:26:41.014Z,88141.75
2023-02-05T18:29:13.395Z,88143.41
2023-02-05T18:31:42.401Z,88141.50
2023-02-05T18:34:09.646Z,88144.09
2023-02-05T18:36:37.212Z,88143.44
2023-02-05T18:39:07.351Z,88144.59
2023-02-05T18:41:37.828Z,88147.28
2023-02-05T18:44:05.870Z,88145.88
2023-02-05T18:46:33.309Z,88152.09
2023-02-05T18:49:05.177Z,88158.22
2023-02-05T18:51:32.642Z,88155.63
2023-02-05T18:53:59.915Z,88161.88
2023-02-05T18:56:28.424Z,88170.53
2023-02-05T18:58:59.380Z,88169.94
2023-02-05T19:01:29.121Z,88179.16
2023-02-05T19:04:01.982Z,88176.97
2023-02-05T19:06:29.300Z,88182.22
2023-02-05T19:08:58.901Z,88169.56
2023-02-05T19:11:28.349Z,88169.06
2023-02-05T19:14:02.592Z,88174.56
2023-02-05T19:16:33.805Z,88176.66
2023-02-05T19:19:02.507Z,88171.66
2023-02-05T19:21:30.383Z,88181.25
2023-02-05T19:24:00.302Z,88183.50
2023-02-05T19:26:29.597Z,88178.91
2023-02-05T19:29:04.547Z,88190.94
2023-02-05T19:31:37.186Z,88189.44
2023-02-05T19:34:05.415Z,88187.41
2023-02-05T19:36:33.756Z,88194.13
2023-02-05T19:39:04.497Z,88185.38
2023-02-05T19:41:34.480Z,88188.06
2023-02-05T19:44:05.910Z,88187.66
2023-02-05T19:46:40.784Z,88199.63
2023-02-05T19:49:14.933Z,88193.69
2023-02-05T19:51:50.517Z,88205.84
2023-02-05T19:54:21.907Z,88203.88
2023-02-05T19:56:49.907Z,88200.06
2023-02-05T19:59:17.664Z,88209.63
2023-02-05T20:01:45.933Z,88213.06
2023-02-05T20:04:23.752Z,88215.91
2023-02-05T20:06:59.233Z,88222.44
2023-02-05T20:09:28.333Z,88212.81
2023-02-05T20:11:55.862Z,88218.59
2023-02-05T20:14:24.215Z,88219.97
2023-02-05T20:16:53.139Z,88216.41
2023-02-05T20:19:21.095Z,88208.44
2023-02-05T20:21:49.077Z,88208.72
2023-02-05T20:24:16.830Z,88207.94
2023-02-05T20:26:46.632Z,88211.25
2023-02-05T20:29:14.112Z,88206.06
2023-02-05T20:31:48.983Z,88202.78
2023-02-05T20:34:20.280Z,88215.28
2023-02-05T20:36:56.465Z,88215.91
2023-02-05T20:39:27.188Z,88224.28
2023-02-05T20:41:56.694Z,88232.13
2023-02-05T20:44:27.533Z,88241.53
2023-02-05T20:46:55.693Z,88245.97
2023-02-05T20:49:23.155Z,88246.31
2023-02-05T20:51:50.590Z,88247.84
2023-02-05T20:54:18.007Z,88244.75
2023-02-05T20:56:45.466Z,88245.00
2023-02-05T20:59:13.019Z,88252.44
2023-02-05T21:01:41.023Z,88253.78
2023-02-05T21:04:10.066Z,88253.91
2023-02-05T21:06:40.434Z,88247.91
2023-02-05T21:09:09.994Z,88258.72
2023-02-05T21:11:38.745Z,88258.38
2023-02-05T21:14:07.125Z,88262.28
2023-02-05T21:16:36.123Z,88261.78
2023-02-05T21:19:07.086Z,88259.00
2023-02-05T21:21:36.938Z,88265.69
2023-02-05T21:24:13.863Z,88270.84
2023-02-05T21:26:44.991Z,88266.75
2023-02-05T21:29:16.339Z,88270.16
2023-02-05T21:31:51.905Z,88261.13
2023-02-05T21:34:22.935Z,88264.53
2023-02-05T21:36:51.523Z,88273.09
2023-02-05T21:39:19.434Z,88277.28
2023-02-05T21:41:47.554Z,88282.19
2023-02-05T21:44:15.027Z,88277.81
2023-02-05T21:46:42.849Z,88287.91
2023-02-05T21:49:11.825Z,88289.75
2023-02-05T21:51:39.242Z,88294.97
2023-02-05T21:54:06.916Z,88303.97
2023-02-05T21:56:39.353Z,88301.94
2023-02-05T21:59:07.096Z,88305.28
2023-02-05T22:01:36.769Z,88296.03
2023-02-05T22:04:15.707Z,88302.75
2023-02-05T22:06:44.166Z,88306.59
2023-02-05T22:09:15.655Z,88310.44
2023-02-05T22:11:44.351Z,88301.72
2023-02-05T22:14:11.970Z,88304.81
2023-02-05T22:16:40.073Z,88308.94
2023-02-05T22:19:07.932Z,88321.84
2023-02-05T22:21:40.592Z,88320.53
2023-02-05T22:24:13.812Z,88320.03
2023-02-05T22:26:43.190Z,88323.16
2023-02-05T22:29:15.001Z,88321.06
2023-02-05T22:31:49.269Z,88320.88
2023-02-05T22:34:17.606Z,88323.00
2023-02-05T22:36:47.071Z,88320.69
2023-02-05T22:39:14.304Z,88325.56
2023-02-05T22:41:43.397Z,88324.50
2023-02-05T22:44:12.858Z,88331.75
2023-02-05T22:46:43.851Z,88339.78
2023-02-05T22:49:13.661Z,88337.47
2023-02-05T22:51:42.184Z,88333.34
2023-02-05T22:54:14.668Z,88328.25
2023-02-05T22:56:42.377Z,88336.03
2023-02-05T22:59:09.914Z,88331.88
2023-02-05T23:01:38.818Z,88330.84
2023-02-05T23:04:09.026Z,88330.81
2023-02-05T23:06:43.093Z,88331.56
2023-02-05T23:09:17.810Z,88337.22
2023-02-05T23:11:46.485Z,88333.91
2023-02-05T23:14:16.853Z,88337.97
2023-02-05T23:16:47.153Z,88340.34
2023-02-05T23:19:19.749Z,88335.97
2023-02-05T23:21:48.020Z,88342.16
2023-02-05T23:24:16.057Z,88332.63
2023-02-05T23:26:48.009Z,88340.63
2023-02-05T23:29:16.973Z,88343.75
2023-02-05T23:31:44.590Z,88341.19
2023-02-05T23:34:13.494Z,88337.06
2023-02-05T23:36:40.758Z,88335.00
2023-02-05T23:39:08.558Z,88331.88
2023-02-05T23:41:36.385Z,88330.28
2023-02-05T23:44:17.786Z,88328.81
2023-02-05T23:46:47.118Z,88332.47
2023-02-05T23:49:15.407Z,88335.59
2023-02-05T23:51:43.244Z,88334.56
2023-02-05T23:54:12.104Z,88332.22
2023-02-05T23:56:40.499Z,88333.00
2023-02-05T23:59:11.509Z,88335.06
